Hauptseite
METAR-TAF:

METAR-TAF

Flughäfen :

Rota, Marianen, Vereinigte Staaten

Breite: 14-11N, Länge: 145-15E, Höhe: 185 m

Beobachtung

Neuester Wetterbericht von vor 33 Minuten, um 21:50 UTC
Wind 11 kt aus Nord/Nordost
Temperatur 26°C
Luftfeuchtigkeit 79%
Luftdruck 1012 hPa
Sichtweite: 11.3 km
Durchbrochene Bewölkung in der Höhe von 1400 ft

METAR: PGRO 152150Z 02011KT 7SM BKN014 26/22 A2988

Zeit: 08:23 (22:23 UTC)

Prognose

Neuester Wetterbericht von vor 16 Stunden und 55 Minuten, um 05:28 UTC
Gültige Prognose vom 15 um 06 UTC bis 16 um 06 UTC
Wind 11 kt aus Ost/Nordost
Sichtweite: 10 km
Aufgelockert bewölkt in der Höhe von 2000 ft
Aufgelockert bewölkt in der Höhe von 12000 ft
Schauer in der Nähe,

TAF: PGRO 150528Z 1506/1606 06011KT P6SM VCSH SCT020 SCT120

Wetterbeobachtungen und Prognosen von mehr als 4000 Flughäfen (METAR und TAF Bericht).

Die verfügbaren Stationen werden durch gelbe und rote Markierungen auf der Karte dargestellt.

Führen Sie die Maus auf sie, um den Namen der Station zu sehen.

Darauf klicken, um die Beobachtung von Wetterbeobachtungen und Prognosen zu sehen.

Um die Karte zu ändern : klicken Sie auf den grünen Tasten mit einem schwarzen Kreuz Zum Vergrößern, auf den grünen Button mit einem Gedankenstrich zu verkleinern, oder auf die grünen Pfeile für benachbarte Karten.


METAR-TAF: